sensor_id;sensor_type;location;lat;lon;timestamp;temperature;humidity
63202;DHT22;49296;48.188;11.566;2023-06-26T00:01:53;23.62;46.09
63202;DHT22;49296;48.188;11.566;2023-06-26T00:04:20;23.60;46.15
63202;DHT22;49296;48.188;11.566;2023-06-26T00:06:46;23.55;46.09
63202;DHT22;49296;48.188;11.566;2023-06-26T00:09:13;23.54;46.18
63202;DHT22;49296;48.188;11.566;2023-06-26T00:11:39;23.54;46.33
63202;DHT22;49296;48.188;11.566;2023-06-26T00:14:08;23.50;46.45
63202;DHT22;49296;48.188;11.566;2023-06-26T00:16:34;23.49;46.73
63202;DHT22;49296;48.188;11.566;2023-06-26T00:19:02;23.43;46.47
63202;DHT22;49296;48.188;11.566;2023-06-26T00:21:28;23.34;46.89
63202;DHT22;49296;48.188;11.566;2023-06-26T00:23:55;23.37;46.70
63202;DHT22;49296;48.188;11.566;2023-06-26T00:26:22;23.40;46.57
63202;DHT22;49296;48.188;11.566;2023-06-26T00:28:49;23.40;46.98
63202;DHT22;49296;48.188;11.566;2023-06-26T00:31:17;23.39;47.08
63202;DHT22;49296;48.188;11.566;2023-06-26T00:33:44;23.34;47.01
63202;DHT22;49296;48.188;11.566;2023-06-26T00:36:10;23.33;47.19
63202;DHT22;49296;48.188;11.566;2023-06-26T00:38:37;23.34;47.09
63202;DHT22;49296;48.188;11.566;2023-06-26T00:41:03;23.33;47.11
63202;DHT22;49296;48.188;11.566;2023-06-26T00:43:30;23.26;46.85
63202;DHT22;49296;48.188;11.566;2023-06-26T00:45:56;23.31;46.42
63202;DHT22;49296;48.188;11.566;2023-06-26T00:48:24;23.30;46.40
63202;DHT22;49296;48.188;11.566;2023-06-26T00:50:51;23.20;46.19
63202;DHT22;49296;48.188;11.566;2023-06-26T00:53:18;23.13;46.30
63202;DHT22;49296;48.188;11.566;2023-06-26T00:55:45;23.18;46.35
63202;DHT22;49296;48.188;11.566;2023-06-26T00:58:12;23.18;46.32
63202;DHT22;49296;48.188;11.566;2023-06-26T01:00:39;23.16;46.58
63202;DHT22;49296;48.188;11.566;2023-06-26T01:03:06;23.15;46.61
63202;DHT22;49296;48.188;11.566;2023-06-26T01:05:34;23.13;47.02
63202;DHT22;49296;48.188;11.566;2023-06-26T01:08:01;23.03;47.38
63202;DHT22;49296;48.188;11.566;2023-06-26T01:10:29;22.84;47.65
63202;DHT22;49296;48.188;11.566;2023-06-26T01:12:57;22.84;47.64
63202;DHT22;49296;48.188;11.566;2023-06-26T01:15:24;22.58;48.42
63202;DHT22;49296;48.188;11.566;2023-06-26T01:17:50;22.65;48.31
63202;DHT22;49296;48.188;11.566;2023-06-26T01:20:19;22.58;48.53
63202;DHT22;49296;48.188;11.566;2023-06-26T01:22:54;22.58;48.21
63202;DHT22;49296;48.188;11.566;2023-06-26T01:25:29;22.43;49.23
63202;DHT22;49296;48.188;11.566;2023-06-26T01:28:05;22.50;49.35
63202;DHT22;49296;48.188;11.566;2023-06-26T01:30:34;22.53;49.76
63202;DHT22;49296;48.188;11.566;2023-06-26T01:33:01;22.53;50.19
63202;DHT22;49296;48.188;11.566;2023-06-26T01:35:29;22.53;50.51
63202;DHT22;49296;48.188;11.566;2023-06-26T01:38:11;22.47;50.73
63202;DHT22;49296;48.188;11.566;2023-06-26T01:40:38;22.44;51.02
63202;DHT22;49296;48.188;11.566;2023-06-26T01:43:09;22.37;51.38
63202;DHT22;49296;48.188;11.566;2023-06-26T01:45:38;22.35;51.41
63202;DHT22;49296;48.188;11.566;2023-06-26T01:48:06;22.36;51.56
63202;DHT22;49296;48.188;11.566;2023-06-26T01:50:37;22.35;51.66
63202;DHT22;49296;48.188;11.566;2023-06-26T01:53:07;22.30;51.67
63202;DHT22;49296;48.188;11.566;2023-06-26T01:55:40;22.28;51.73
63202;DHT22;49296;48.188;11.566;2023-06-26T01:58:10;22.22;51.93
63202;DHT22;49296;48.188;11.566;2023-06-26T02:00:37;22.22;52.06
63202;DHT22;49296;48.188;11.566;2023-06-26T02:03:04;22.13;52.29
63202;DHT22;49296;48.188;11.566;2023-06-26T02:05:31;22.09;52.18
63202;DHT22;49296;48.188;11.566;2023-06-26T02:07:58;21.99;52.45
63202;DHT22;49296;48.188;11.566;2023-06-26T02:10:26;21.96;52.64
63202;DHT22;49296;48.188;11.566;2023-06-26T02:12:53;21.92;52.61
63202;DHT22;49296;48.188;11.566;2023-06-26T02:15:21;21.87;52.69
63202;DHT22;49296;48.188;11.566;2023-06-26T02:17:48;21.88;52.74
63202;DHT22;49296;48.188;11.566;2023-06-26T02:20:14;21.79;52.65
63202;DHT22;49296;48.188;11.566;2023-06-26T02:22:41;21.82;52.24
63202;DHT22;49296;48.188;11.566;2023-06-26T02:25:09;21.81;52.04
63202;DHT22;49296;48.188;11.566;2023-06-26T02:27:37;21.79;51.78
63202;DHT22;49296;48.188;11.566;2023-06-26T02:30:05;21.74;51.81
63202;DHT22;49296;48.188;11.566;2023-06-26T02:32:33;21.74;51.78
63202;DHT22;49296;48.188;11.566;2023-06-26T02:34:59;21.75;51.57
63202;DHT22;49296;48.188;11.566;2023-06-26T02:37:26;21.70;51.61
63202;DHT22;49296;48.188;11.566;2023-06-26T02:39:53;21.71;51.58
63202;DHT22;49296;48.188;11.566;2023-06-26T02:42:19;21.70;51.57
63202;DHT22;49296;48.188;11.566;2023-06-26T02:44:46;21.67;51.84
63202;DHT22;49296;48.188;11.566;2023-06-26T02:47:13;21.64;51.87
63202;DHT22;49296;48.188;11.566;2023-06-26T02:49:41;21.64;51.91
63202;DHT22;49296;48.188;11.566;2023-06-26T02:52:08;21.65;51.79
63202;DHT22;49296;48.188;11.566;2023-06-26T02:54:34;21.64;51.86
63202;DHT22;49296;48.188;11.566;2023-06-26T02:57:01;21.53;51.87
63202;DHT22;49296;48.188;11.566;2023-06-26T02:59:28;21.57;52.14
63202;DHT22;49296;48.188;11.566;2023-06-26T03:01:54;21.57;52.07
63202;DHT22;49296;48.188;11.566;2023-06-26T03:04:21;21.58;52.16
63202;DHT22;49296;48.188;11.566;2023-06-26T03:06:49;21.54;52.25
63202;DHT22;49296;48.188;11.566;2023-06-26T03:09:15;21.53;52.21
63202;DHT22;49296;48.188;11.566;2023-06-26T03:11:43;21.53;52.03
63202;DHT22;49296;48.188;11.566;2023-06-26T03:14:09;21.53;51.94
63202;DHT22;49296;48.188;11.566;2023-06-26T03:16:36;21.50;52.02
63202;DHT22;49296;48.188;11.566;2023-06-26T03:19:03;21.49;52.01
63202;DHT22;49296;48.188;11.566;2023-06-26T03:21:29;21.47;51.79
63202;DHT22;49296;48.188;11.566;2023-06-26T03:23:57;21.43;52.07
63202;DHT22;49296;48.188;11.566;2023-06-26T03:26:24;21.37;52.04
63202;DHT22;49296;48.188;11.566;2023-06-26T03:28:52;21.40;52.08
63202;DHT22;49296;48.188;11.566;2023-06-26T03:31:19;21.37;52.13
63202;DHT22;49296;48.188;11.566;2023-06-26T03:33:46;21.42;52.41
63202;DHT22;49296;48.188;11.566;2023-06-26T03:36:13;21.42;52.14
63202;DHT22;49296;48.188;11.566;2023-06-26T03:38:40;21.43;52.14
63202;DHT22;49296;48.188;11.566;2023-06-26T03:41:08;21.19;51.89
63202;DHT22;49296;48.188;11.566;2023-06-26T03:43:35;21.08;52.44
63202;DHT22;49296;48.188;11.566;2023-06-26T03:46:01;21.18;52.07
63202;DHT22;49296;48.188;11.566;2023-06-26T03:48:28;21.25;51.82
63202;DHT22;49296;48.188;11.566;2023-06-26T03:50:55;21.30;51.77
63202;DHT22;49296;48.188;11.566;2023-06-26T03:53:21;21.39;51.55
63202;DHT22;49296;48.188;11.566;2023-06-26T03:55:48;21.43;51.64
63202;DHT22;49296;48.188;11.566;2023-06-26T03:58:16;21.42;51.52
63202;DHT22;49296;48.188;11.566;2023-06-26T04:00:43;21.46;51.56
63202;DHT22;49296;48.188;11.566;2023-06-26T04:03:10;21.42;51.75
63202;DHT22;49296;48.188;11.566;2023-06-26T04:05:36;21.40;51.80
63202;DHT22;49296;48.188;11.566;2023-06-26T04:08:03;21.42;51.42
63202;DHT22;49296;48.188;11.566;2023-06-26T04:10:30;21.43;51.62
63202;DHT22;49296;48.188;11.566;2023-06-26T04:12:56;21.42;51.39
63202;DHT22;49296;48.188;11.566;2023-06-26T04:15:24;21.47;51.39
63202;DHT22;49296;48.188;11.566;2023-06-26T04:17:51;21.34;51.37
63202;DHT22;49296;48.188;11.566;2023-06-26T04:20:18;21.43;51.45
63202;DHT22;49296;48.188;11.566;2023-06-26T04:22:44;21.37;51.57
63202;DHT22;49296;48.188;11.566;2023-06-26T04:25:11;21.44;51.35
63202;DHT22;49296;48.188;11.566;2023-06-26T04:27:38;21.34;51.15
63202;DHT22;49296;48.188;11.566;2023-06-26T04:30:05;21.32;51.30
63202;DHT22;49296;48.188;11.566;2023-06-26T04:32:34;21.40;51.46
63202;DHT22;49296;48.188;11.566;2023-06-26T04:35:00;21.46;51.52
63202;DHT22;49296;48.188;11.566;2023-06-26T04:37:27;21.51;51.26
63202;DHT22;49296;48.188;11.566;2023-06-26T04:39:54;21.51;51.06
63202;DHT22;49296;48.188;11.566;2023-06-26T04:42:21;21.44;51.27
63202;DHT22;49296;48.188;11.566;2023-06-26T04:44:47;21.58;51.46
63202;DHT22;49296;48.188;11.566;2023-06-26T04:47:14;21.58;51.11
63202;DHT22;49296;48.188;11.566;2023-06-26T04:49:43;21.46;51.17
63202;DHT22;49296;48.188;11.566;2023-06-26T04:52:11;21.57;51.24
63202;DHT22;49296;48.188;11.566;2023-06-26T04:54:38;21.65;51.25
63202;DHT22;49296;48.188;11.566;2023-06-26T04:57:05;21.60;51.01
63202;DHT22;49296;48.188;11.566;2023-06-26T04:59:32;21.58;50.90
63202;DHT22;49296;48.188;11.566;2023-06-26T05:01:58;21.73;50.83
63202;DHT22;49296;48.188;11.566;2023-06-26T05:04:25;21.79;50.63
63202;DHT22;49296;48.188;11.566;2023-06-26T05:06:53;21.73;50.55
63202;DHT22;49296;48.188;11.566;2023-06-26T05:09:19;21.82;50.55
63202;DHT22;49296;48.188;11.566;2023-06-26T05:11:46;21.75;50.60
63202;DHT22;49296;48.188;11.566;2023-06-26T05:14:13;21.84;50.61
63202;DHT22;49296;48.188;11.566;2023-06-26T05:16:39;21.78;50.41
63202;DHT22;49296;48.188;11.566;2023-06-26T05:19:06;21.65;50.74
63202;DHT22;49296;48.188;11.566;2023-06-26T05:21:33;21.40;50.94
63202;DHT22;49296;48.188;11.566;2023-06-26T05:24:02;21.49;50.81
63202;DHT22;49296;48.188;11.566;2023-06-26T05:26:30;21.47;50.97
63202;DHT22;49296;48.188;11.566;2023-06-26T05:28:57;21.49;50.65
63202;DHT22;49296;48.188;11.566;2023-06-26T05:31:24;21.54;50.66
63202;DHT22;49296;48.188;11.566;2023-06-26T05:33:53;21.54;50.58
63202;DHT22;49296;48.188;11.566;2023-06-26T05:36:22;21.54;50.45
63202;DHT22;49296;48.188;11.566;2023-06-26T05:38:50;21.68;50.29
63202;DHT22;49296;48.188;11.566;2023-06-26T05:41:18;21.68;50.31
63202;DHT22;49296;48.188;11.566;2023-06-26T05:43:45;21.70;50.43
63202;DHT22;49296;48.188;11.566;2023-06-26T05:46:12;21.91;50.10
63202;DHT22;49296;48.188;11.566;2023-06-26T05:48:38;21.94;50.15
63202;DHT22;49296;48.188;11.566;2023-06-26T05:51:06;21.94;50.10
63202;DHT22;49296;48.188;11.566;2023-06-26T05:53:33;22.10;49.92
63202;DHT22;49296;48.188;11.566;2023-06-26T05:56:00;22.29;49.61
63202;DHT22;49296;48.188;11.566;2023-06-26T05:58:30;22.24;50.07
63202;DHT22;49296;48.188;11.566;2023-06-26T06:00:56;22.16;50.34
63202;DHT22;49296;48.188;11.566;2023-06-26T06:03:23;22.16;50.40
63202;DHT22;49296;48.188;11.566;2023-06-26T06:05:50;22.22;50.10
63202;DHT22;49296;48.188;11.566;2023-06-26T06:08:16;22.29;50.30
63202;DHT22;49296;48.188;11.566;2023-06-26T06:10:43;22.39;50.05
63202;DHT22;49296;48.188;11.566;2023-06-26T06:13:10;22.48;49.82
63202;DHT22;49296;48.188;11.566;2023-06-26T06:15:37;22.41;50.32
63202;DHT22;49296;48.188;11.566;2023-06-26T06:18:04;22.50;50.19
63202;DHT22;49296;48.188;11.566;2023-06-26T06:20:31;22.53;50.18
63202;DHT22;49296;48.188;11.566;2023-06-26T06:22:57;22.65;49.95
63202;DHT22;49296;48.188;11.566;2023-06-26T06:25:24;22.63;49.92
63202;DHT22;49296;48.188;11.566;2023-06-26T06:27:51;22.69;50.32
63202;DHT22;49296;48.188;11.566;2023-06-26T06:30:17;22.81;50.14
63202;DHT22;49296;48.188;11.566;2023-06-26T06:32:45;22.87;49.96
63202;DHT22;49296;48.188;11.566;2023-06-26T06:35:16;22.88;50.09
63202;DHT22;49296;48.188;11.566;2023-06-26T06:37:42;22.92;50.53
63202;DHT22;49296;48.188;11.566;2023-06-26T06:40:10;22.98;49.98
63202;DHT22;49296;48.188;11.566;2023-06-26T06:42:37;23.06;49.72
63202;DHT22;49296;48.188;11.566;2023-06-26T06:45:04;23.18;49.71
63202;DHT22;49296;48.188;11.566;2023-06-26T06:47:31;23.22;50.23
63202;DHT22;49296;48.188;11.566;2023-06-26T06:49:59;23.27;50.16
63202;DHT22;49296;48.188;11.566;2023-06-26T06:52:33;23.40;49.41
63202;DHT22;49296;48.188;11.566;2023-06-26T06:55:00;23.49;49.32
63202;DHT22;49296;48.188;11.566;2023-06-26T06:57:30;23.55;48.68
63202;DHT22;49296;48.188;11.566;2023-06-26T07:00:01;23.68;48.32
63202;DHT22;49296;48.188;11.566;2023-06-26T07:02:28;23.77;47.71
63202;DHT22;49296;48.188;11.566;2023-06-26T07:04:54;23.89;47.79
63202;DHT22;49296;48.188;11.566;2023-06-26T07:07:22;23.94;47.81
63202;DHT22;49296;48.188;11.566;2023-06-26T07:09:49;23.99;47.03
63202;DHT22;49296;48.188;11.566;2023-06-26T07:12:15;24.01;47.01
63202;DHT22;49296;48.188;11.566;2023-06-26T07:14:42;24.08;47.09
63202;DHT22;49296;48.188;11.566;2023-06-26T07:17:08;24.15;47.37
63202;DHT22;49296;48.188;11.566;2023-06-26T07:19:35;24.23;47.39
63202;DHT22;49296;48.188;11.566;2023-06-26T07:22:02;24.24;47.37
63202;DHT22;49296;48.188;11.566;2023-06-26T07:24:30;24.29;47.28
63202;DHT22;49296;48.188;11.566;2023-06-26T07:26:59;24.39;47.41
63202;DHT22;49296;48.188;11.566;2023-06-26T07:29:26;24.43;47.38
63202;DHT22;49296;48.188;11.566;2023-06-26T07:31:52;24.44;47.41
63202;DHT22;49296;48.188;11.566;2023-06-26T07:34:19;24.46;47.49
63202;DHT22;49296;48.188;11.566;2023-06-26T07:36:46;24.51;47.13
63202;DHT22;49296;48.188;11.566;2023-06-26T07:39:12;24.53;47.47
63202;DHT22;49296;48.188;11.566;2023-06-26T07:41:40;24.56;48.11
63202;DHT22;49296;48.188;11.566;2023-06-26T07:44:07;24.63;48.09
63202;DHT22;49296;48.188;11.566;2023-06-26T07:46:34;24.63;48.05
63202;DHT22;49296;48.188;11.566;2023-06-26T07:49:00;24.67;48.36
63202;DHT22;49296;48.188;11.566;2023-06-26T07:51:28;24.77;48.33
63202;DHT22;49296;48.188;11.566;2023-06-26T07:53:55;24.69;47.93
63202;DHT22;49296;48.188;11.566;2023-06-26T07:56:21;24.68;48.19
63202;DHT22;49296;48.188;11.566;2023-06-26T07:58:49;24.86;47.88
63202;DHT22;49296;48.188;11.566;2023-06-26T08:01:16;25.03;47.89
63202;DHT22;49296;48.188;11.566;2023-06-26T08:03:42;25.06;48.09
63202;DHT22;49296;48.188;11.566;2023-06-26T08:06:09;25.09;48.18
63202;DHT22;49296;48.188;11.566;2023-06-26T08:08:36;25.06;48.24
63202;DHT22;49296;48.188;11.566;2023-06-26T08:11:02;25.06;47.96
63202;DHT22;49296;48.188;11.566;2023-06-26T08:13:29;25.08;47.62
63202;DHT22;49296;48.188;11.566;2023-06-26T08:15:57;25.20;47.68
63202;DHT22;49296;48.188;11.566;2023-06-26T08:18:24;25.20;48.47
63202;DHT22;49296;48.188;11.566;2023-06-26T08:20:50;25.33;48.13
63202;DHT22;49296;48.188;11.566;2023-06-26T08:23:17;25.43;47.87
63202;DHT22;49296;48.188;11.566;2023-06-26T08:25:44;25.50;48.34
63202;DHT22;49296;48.188;11.566;2023-06-26T08:28:12;25.60;48.15
63202;DHT22;49296;48.188;11.566;2023-06-26T08:30:39;25.71;47.95
63202;DHT22;49296;48.188;11.566;2023-06-26T08:33:07;25.78;47.87
63202;DHT22;49296;48.188;11.566;2023-06-26T08:35:37;25.84;47.66
63202;DHT22;49296;48.188;11.566;2023-06-26T08:38:04;26.00;47.35
63202;DHT22;49296;48.188;11.566;2023-06-26T08:40:31;26.09;46.76
63202;DHT22;49296;48.188;11.566;2023-06-26T08:42:58;26.09;46.64
63202;DHT22;49296;48.188;11.566;2023-06-26T08:45:25;26.16;46.26
63202;DHT22;49296;48.188;11.566;2023-06-26T08:47:55;26.24;46.07
63202;DHT22;49296;48.188;11.566;2023-06-26T08:50:23;26.33;45.73
63202;DHT22;49296;48.188;11.566;2023-06-26T08:52:54;26.39;45.92
63202;DHT22;49296;48.188;11.566;2023-06-26T08:55:23;26.52;46.15
63202;DHT22;49296;48.188;11.566;2023-06-26T08:57:53;26.45;46.09
63202;DHT22;49296;48.188;11.566;2023-06-26T09:00:20;26.50;45.58
63202;DHT22;49296;48.188;11.566;2023-06-26T09:02:47;26.61;45.64
63202;DHT22;49296;48.188;11.566;2023-06-26T09:05:13;26.62;45.99
63202;DHT22;49296;48.188;11.566;2023-06-26T09:07:41;26.65;44.58
63202;DHT22;49296;48.188;11.566;2023-06-26T09:10:08;26.69;44.98
63202;DHT22;49296;48.188;11.566;2023-06-26T09:12:36;26.81;45.12
63202;DHT22;49296;48.188;11.566;2023-06-26T09:15:04;26.86;44.96
63202;DHT22;49296;48.188;11.566;2023-06-26T09:17:33;26.88;44.88
63202;DHT22;49296;48.188;11.566;2023-06-26T09:20:00;26.92;44.86
63202;DHT22;49296;48.188;11.566;2023-06-26T09:22:27;27.10;44.31
63202;DHT22;49296;48.188;11.566;2023-06-26T09:24:55;27.07;43.89
63202;DHT22;49296;48.188;11.566;2023-06-26T09:27:21;27.20;43.35
63202;DHT22;49296;48.188;11.566;2023-06-26T09:29:48;27.17;43.26
63202;DHT22;49296;48.188;11.566;2023-06-26T09:32:16;27.16;43.68
63202;DHT22;49296;48.188;11.566;2023-06-26T09:34:43;27.20;43.19
63202;DHT22;49296;48.188;11.566;2023-06-26T09:37:12;27.30;43.02
63202;DHT22;49296;48.188;11.566;2023-06-26T09:39:38;27.33;42.08
63202;DHT22;49296;48.188;11.566;2023-06-26T09:42:07;27.39;41.90
63202;DHT22;49296;48.188;11.566;2023-06-26T09:44:35;27.58;41.96
63202;DHT22;49296;48.188;11.566;2023-06-26T09:47:01;27.65;42.17
63202;DHT22;49296;48.188;11.566;2023-06-26T09:49:28;27.71;42.17
63202;DHT22;49296;48.188;11.566;2023-06-26T09:51:55;27.74;42.01
63202;DHT22;49296;48.188;11.566;2023-06-26T09:54:22;27.77;41.45
63202;DHT22;49296;48.188;11.566;2023-06-26T09:56:50;27.69;41.26
63202;DHT22;49296;48.188;11.566;2023-06-26T09:59:18;27.68;41.17
63202;DHT22;49296;48.188;11.566;2023-06-26T10:01:45;27.74;41.12
63202;DHT22;49296;48.188;11.566;2023-06-26T10:04:12;27.74;39.34
63202;DHT22;49296;48.188;11.566;2023-06-26T10:06:43;27.85;39.32
63202;DHT22;49296;48.188;11.566;2023-06-26T10:09:12;27.92;39.17
63202;DHT22;49296;48.188;11.566;2023-06-26T10:11:47;27.95;39.63
63202;DHT22;49296;48.188;11.566;2023-06-26T10:14:17;27.98;39.98
63202;DHT22;49296;48.188;11.566;2023-06-26T10:16:45;27.84;39.45
63202;DHT22;49296;48.188;11.566;2023-06-26T10:19:13;27.74;38.62
63202;DHT22;49296;48.188;11.566;2023-06-26T10:21:41;27.78;39.36
63202;DHT22;49296;48.188;11.566;2023-06-26T10:24:10;27.99;38.93
63202;DHT22;49296;48.188;11.566;2023-06-26T10:26:42;28.19;39.16
63202;DHT22;49296;48.188;11.566;2023-06-26T10:29:10;28.14;39.37
63202;DHT22;49296;48.188;11.566;2023-06-26T10:31:40;28.24;39.09
63202;DHT22;49296;48.188;11.566;2023-06-26T10:34:11;28.13;38.85
63202;DHT22;49296;48.188;11.566;2023-06-26T10:36:38;28.08;39.51
63202;DHT22;49296;48.188;11.566;2023-06-26T10:39:06;28.17;39.28
63202;DHT22;49296;48.188;11.566;2023-06-26T10:41:37;28.34;38.81
63202;DHT22;49296;48.188;11.566;2023-06-26T10:44:09;28.45;38.71
63202;DHT22;49296;48.188;11.566;2023-06-26T10:46:52;28.28;38.54
63202;DHT22;49296;48.188;11.566;2023-06-26T10:49:19;28.47;38.42
63202;DHT22;49296;48.188;11.566;2023-06-26T10:51:47;28.45;37.82
63202;DHT22;49296;48.188;11.566;2023-06-26T10:54:15;28.44;37.68
63202;DHT22;49296;48.188;11.566;2023-06-26T10:56:43;28.65;38.13
63202;DHT22;49296;48.188;11.566;2023-06-26T10:59:14;28.76;38.06
63202;DHT22;49296;48.188;11.566;2023-06-26T11:01:42;28.76;38.10
63202;DHT22;49296;48.188;11.566;2023-06-26T11:04:11;28.82;37.67
63202;DHT22;49296;48.188;11.566;2023-06-26T11:06:39;28.94;37.86
63202;DHT22;49296;48.188;11.566;2023-06-26T11:09:08;28.95;37.39
63202;DHT22;49296;48.188;11.566;2023-06-26T11:11:58;28.85;37.62
63202;DHT22;49296;48.188;11.566;2023-06-26T11:14:30;28.92;37.46
63202;DHT22;49296;48.188;11.566;2023-06-26T11:16:57;29.12;37.50
63202;DHT22;49296;48.188;11.566;2023-06-26T11:19:27;29.19;37.87
63202;DHT22;49296;48.188;11.566;2023-06-26T11:22:03;29.40;37.64
63202;DHT22;49296;48.188;11.566;2023-06-26T11:24:31;29.41;37.35
63202;DHT22;49296;48.188;11.566;2023-06-26T11:27:02;29.19;37.53
63202;DHT22;49296;48.188;11.566;2023-06-26T11:29:30;29.20;38.07
63202;DHT22;49296;48.188;11.566;2023-06-26T11:32:01;29.40;38.33
63202;DHT22;49296;48.188;11.566;2023-06-26T11:34:32;29.44;38.33
63202;DHT22;49296;48.188;11.566;2023-06-26T11:36:59;29.57;37.93
63202;DHT22;49296;48.188;11.566;2023-06-26T11:39:29;29.53;37.71
63202;DHT22;49296;48.188;11.566;2023-06-26T11:41:56;29.17;38.52
63202;DHT22;49296;48.188;11.566;2023-06-26T11:44:23;29.07;38.86
63202;DHT22;49296;48.188;11.566;2023-06-26T11:46:51;29.27;38.65
63202;DHT22;49296;48.188;11.566;2023-06-26T11:49:21;29.50;38.14
63202;DHT22;49296;48.188;11.566;2023-06-26T11:51:50;29.58;38.24
63202;DHT22;49296;48.188;11.566;2023-06-26T11:54:23;29.50;38.03
63202;DHT22;49296;48.188;11.566;2023-06-26T11:56:54;29.62;38.87
63202;DHT22;49296;48.188;11.566;2023-06-26T11:59:23;29.85;37.80
63202;DHT22;49296;48.188;11.566;2023-06-26T12:01:50;29.82;37.72
63202;DHT22;49296;48.188;11.566;2023-06-26T12:04:18;29.88;38.42
63202;DHT22;49296;48.188;11.566;2023-06-26T12:06:47;30.06;37.72
63202;DHT22;49296;48.188;11.566;2023-06-26T12:09:17;30.16;37.47
63202;DHT22;49296;48.188;11.566;2023-06-26T12:11:46;30.28;37.80
63202;DHT22;49296;48.188;11.566;2023-06-26T12:14:14;30.27;36.92
63202;DHT22;49296;48.188;11.566;2023-06-26T12:16:42;30.16;37.71
63202;DHT22;49296;48.188;11.566;2023-06-26T12:19:11;29.96;36.90
63202;DHT22;49296;48.188;11.566;2023-06-26T12:21:45;29.85;37.12
63202;DHT22;49296;48.188;11.566;2023-06-26T12:24:13;29.96;36.59
63202;DHT22;49296;48.188;11.566;2023-06-26T12:26:43;30.19;35.32
63202;DHT22;49296;48.188;11.566;2023-06-26T12:29:10;30.45;34.24
63202;DHT22;49296;48.188;11.566;2023-06-26T12:31:39;30.62;33.63
63202;DHT22;49296;48.188;11.566;2023-06-26T12:34:09;30.83;33.51
63202;DHT22;49296;48.188;11.566;2023-06-26T12:36:39;30.98;33.83
63202;DHT22;49296;48.188;11.566;2023-06-26T12:39:09;30.92;34.83
63202;DHT22;49296;48.188;11.566;2023-06-26T12:41:45;30.71;35.60
63202;DHT22;49296;48.188;11.566;2023-06-26T12:44:23;30.28;36.42
63202;DHT22;49296;48.188;11.566;2023-06-26T12:46:54;30.61;36.77
63202;DHT22;49296;48.188;11.566;2023-06-26T12:49:29;30.71;36.20
63202;DHT22;49296;48.188;11.566;2023-06-26T12:51:55;30.88;36.55
63202;DHT22;49296;48.188;11.566;2023-06-26T12:54:22;31.03;36.66
63202;DHT22;49296;48.188;11.566;2023-06-26T12:56:50;31.24;35.71
63202;DHT22;49296;48.188;11.566;2023-06-26T12:59:17;31.52;35.15
63202;DHT22;49296;48.188;11.566;2023-06-26T13:01:43;31.57;34.39
63202;DHT22;49296;48.188;11.566;2023-06-26T13:04:10;31.72;34.51
63202;DHT22;49296;48.188;11.566;2023-06-26T13:06:37;31.10;34.73
63202;DHT22;49296;48.188;11.566;2023-06-26T13:09:04;30.89;35.51
63202;DHT22;49296;48.188;11.566;2023-06-26T13:11:30;31.26;34.47
63202;DHT22;49296;48.188;11.566;2023-06-26T13:13:59;31.43;34.42
63202;DHT22;49296;48.188;11.566;2023-06-26T13:16:25;31.19;35.28
63202;DHT22;49296;48.188;11.566;2023-06-26T13:18:52;31.35;35.33
63202;DHT22;49296;48.188;11.566;2023-06-26T13:21:19;31.62;35.01
63202;DHT22;49296;48.188;11.566;2023-06-26T13:23:46;31.85;35.37
63202;DHT22;49296;48.188;11.566;2023-06-26T13:26:13;32.14;34.46
63202;DHT22;49296;48.188;11.566;2023-06-26T13:28:40;32.05;34.71
63202;DHT22;49296;48.188;11.566;2023-06-26T13:31:08;32.50;33.76
63202;DHT22;49296;48.188;11.566;2023-06-26T13:33:35;32.54;33.81
63202;DHT22;49296;48.188;11.566;2023-06-26T13:36:02;32.02;34.95
63202;DHT22;49296;48.188;11.566;2023-06-26T13:38:32;32.03;34.73
63202;DHT22;49296;48.188;11.566;2023-06-26T13:40:59;31.59;35.26
63202;DHT22;49296;48.188;11.566;2023-06-26T13:43:28;32.08;34.15
63202;DHT22;49296;48.188;11.566;2023-06-26T13:45:55;32.26;33.72
63202;DHT22;49296;48.188;11.566;2023-06-26T13:48:23;32.54;33.54
63202;DHT22;49296;48.188;11.566;2023-06-26T13:50:51;32.44;33.39
63202;DHT22;49296;48.188;11.566;2023-06-26T13:53:18;32.33;34.03
63202;DHT22;49296;48.188;11.566;2023-06-26T13:55:45;32.17;34.29
63202;DHT22;49296;48.188;11.566;2023-06-26T13:58:12;31.99;34.10
63202;DHT22;49296;48.188;11.566;2023-06-26T14:00:39;32.60;33.74
63202;DHT22;49296;48.188;11.566;2023-06-26T14:03:06;33.02;33.57
63202;DHT22;49296;48.188;11.566;2023-06-26T14:05:37;33.03;32.88
63202;DHT22;49296;48.188;11.566;2023-06-26T14:08:05;33.34;32.96
63202;DHT22;49296;48.188;11.566;2023-06-26T14:10:32;33.15;32.56
63202;DHT22;49296;48.188;11.566;2023-06-26T14:12:59;32.26;33.70
63202;DHT22;49296;48.188;11.566;2023-06-26T14:15:26;32.88;32.72
63202;DHT22;49296;48.188;11.566;2023-06-26T14:17:53;33.20;31.97
63202;DHT22;49296;48.188;11.566;2023-06-26T14:20:21;33.81;33.02
63202;DHT22;49296;48.188;11.566;2023-06-26T14:22:49;34.30;31.52
63202;DHT22;49296;48.188;11.566;2023-06-26T14:25:16;34.24;30.96
63202;DHT22;49296;48.188;11.566;2023-06-26T14:27:43;34.21;31.23
63202;DHT22;49296;48.188;11.566;2023-06-26T14:30:11;34.16;31.30
63202;DHT22;49296;48.188;11.566;2023-06-26T14:32:38;33.89;32.30
63202;DHT22;49296;48.188;11.566;2023-06-26T14:35:05;33.74;31.80
63202;DHT22;49296;48.188;11.566;2023-06-26T14:37:32;34.41;31.37
63202;DHT22;49296;48.188;11.566;2023-06-26T14:40:00;34.77;30.57
63202;DHT22;49296;48.188;11.566;2023-06-26T14:42:27;34.51;30.74
63202;DHT22;49296;48.188;11.566;2023-06-26T14:44:53;34.96;31.05
63202;DHT22;49296;48.188;11.566;2023-06-26T14:47:20;34.44;31.10
63202;DHT22;49296;48.188;11.566;2023-06-26T14:49:49;34.30;31.47
63202;DHT22;49296;48.188;11.566;2023-06-26T14:52:15;34.08;31.80
63202;DHT22;49296;48.188;11.566;2023-06-26T14:54:42;33.84;31.88
63202;DHT22;49296;48.188;11.566;2023-06-26T14:57:10;33.84;31.93
63202;DHT22;49296;48.188;11.566;2023-06-26T14:59:37;34.01;31.66
63202;DHT22;49296;48.188;11.566;2023-06-26T15:02:04;34.46;31.45
63202;DHT22;49296;48.188;11.566;2023-06-26T15:04:31;34.02;31.24
63202;DHT22;49296;48.188;11.566;2023-06-26T15:06:58;34.35;31.30
63202;DHT22;49296;48.188;11.566;2023-06-26T15:09:25;33.85;32.10
63202;DHT22;49296;48.188;11.566;2023-06-26T15:11:51;33.57;32.06
63202;DHT22;49296;48.188;11.566;2023-06-26T15:14:19;33.31;32.63
63202;DHT22;49296;48.188;11.566;2023-06-26T15:16:46;32.92;32.84
63202;DHT22;49296;48.188;11.566;2023-06-26T15:19:14;32.88;33.72